createdAt,value
2023-04-09T00:00:27.506Z,0.00
2023-04-09T00:01:27.534Z,0.00
2023-04-09T00:02:27.580Z,0.00
2023-04-09T00:03:27.603Z,0.00
2023-04-09T00:04:27.500Z,0.00
2023-04-09T00:05:27.467Z,0.00
2023-04-09T00:06:27.435Z,0.00
2023-04-09T00:07:27.440Z,0.00
2023-04-09T00:08:27.451Z,0.00
2023-04-09T00:09:27.403Z,0.00
2023-04-09T00:10:27.394Z,0.00
2023-04-09T00:11:27.399Z,0.00
2023-04-09T00:12:27.370Z,0.00
2023-04-09T00:13:38.684Z,0.00
2023-04-09T00:14:28.351Z,0.00
2023-04-09T00:15:31.189Z,0.00
2023-04-09T00:16:27.397Z,0.00
2023-04-09T00:17:27.343Z,0.00
2023-04-09T00:18:27.310Z,0.00
2023-04-09T00:19:27.304Z,0.00
2023-04-09T00:20:27.310Z,0.00
2023-04-09T00:21:27.287Z,0.00
2023-04-09T00:22:27.320Z,0.00
2023-04-09T00:23:27.277Z,0.00
2023-04-09T00:24:27.251Z,0.00
2023-04-09T00:25:27.237Z,0.00
2023-04-09T00:26:27.251Z,0.00
2023-04-09T00:27:27.280Z,0.00
2023-04-09T00:28:27.206Z,0.00
2023-04-09T00:29:27.191Z,0.00
2023-04-09T00:30:27.192Z,0.00
2023-04-09T00:31:27.189Z,0.00
2023-04-09T00:32:27.175Z,0.00
2023-04-09T00:33:27.221Z,0.00
2023-04-09T00:34:27.142Z,0.00
2023-04-09T00:35:27.271Z,0.00
2023-04-09T00:36:27.193Z,0.00
2023-04-09T00:37:27.101Z,0.00
2023-04-09T00:38:27.106Z,0.00
2023-04-09T00:39:27.099Z,0.00
2023-04-09T00:40:27.099Z,0.00
2023-04-09T00:41:27.078Z,0.00
2023-04-09T00:42:27.058Z,0.00
2023-04-09T00:43:27.096Z,0.00
2023-04-09T00:44:27.043Z,0.00
2023-04-09T00:45:27.073Z,0.00
2023-04-09T00:46:27.012Z,0.00
2023-04-09T00:47:27.027Z,0.00
2023-04-09T00:48:27.005Z,0.00
2023-04-09T00:49:26.980Z,0.00
2023-04-09T00:50:26.991Z,0.00
2023-04-09T00:51:27.003Z,0.00
2023-04-09T00:52:26.958Z,0.00
2023-04-09T00:53:27.124Z,0.00
2023-04-09T00:54:26.936Z,0.00
2023-04-09T00:55:26.909Z,0.00
2023-04-09T00:56:26.917Z,0.00
2023-04-09T00:57:26.882Z,0.00
2023-04-09T00:58:26.882Z,0.00
2023-04-09T00:59:26.919Z,0.00
2023-04-09T01:00:26.856Z,0.00
2023-04-09T01:01:26.933Z,0.00
2023-04-09T01:02:26.958Z,0.00
2023-04-09T01:03:26.930Z,0.00
2023-04-09T01:04:26.816Z,0.00
2023-04-09T01:05:26.800Z,0.00
2023-04-09T01:06:26.800Z,0.00
2023-04-09T01:07:26.778Z,0.00
2023-04-09T01:08:26.771Z,0.00
2023-04-09T01:09:26.755Z,0.00
2023-04-09T01:10:26.751Z,0.00
2023-04-09T01:11:26.820Z,0.00
2023-04-09T01:12:26.752Z,0.00
2023-04-09T01:13:26.713Z,0.00
2023-04-09T01:14:26.708Z,0.00
2023-04-09T01:15:26.690Z,0.00
2023-04-09T01:16:26.736Z,0.00
2023-04-09T01:17:26.710Z,0.00
2023-04-09T01:18:26.665Z,0.00
2023-04-09T01:19:26.649Z,0.00
2023-04-09T01:20:26.640Z,0.00
2023-04-09T01:21:26.631Z,0.00
2023-04-09T01:22:26.620Z,0.00
2023-04-09T01:23:26.609Z,0.00
2023-04-09T01:24:26.601Z,0.00
2023-04-09T01:25:26.597Z,0.00
2023-04-09T01:26:26.608Z,0.00
2023-04-09T01:27:26.555Z,0.00
2023-04-09T01:28:26.559Z,0.00
2023-04-09T01:29:26.541Z,0.00
2023-04-09T01:30:26.595Z,0.00
2023-04-09T01:31:26.540Z,0.00
2023-04-09T01:32:26.541Z,0.00
2023-04-09T01:33:26.518Z,0.00
2023-04-09T01:34:26.485Z,0.00
2023-04-09T01:35:26.503Z,0.00
2023-04-09T01:36:26.519Z,0.00
2023-04-09T01:37:26.476Z,0.00
2023-04-09T01:38:26.489Z,0.00
2023-04-09T01:39:26.442Z,0.00
2023-04-09T01:40:26.426Z,0.00
2023-04-09T01:41:26.431Z,0.00
2023-04-09T01:42:26.404Z,0.00
2023-04-09T01:43:26.411Z,0.00
2023-04-09T01:44:26.384Z,0.00
2023-04-09T01:45:26.389Z,0.00
2023-04-09T01:46:26.444Z,0.00
2023-04-09T01:47:26.386Z,0.00
2023-04-09T01:48:26.332Z,0.00
2023-04-09T01:49:26.359Z,0.00
2023-04-09T01:50:26.316Z,0.00
2023-04-09T01:51:26.322Z,0.00
2023-04-09T01:52:26.297Z,0.00
2023-04-09T01:53:26.295Z,0.00
2023-04-09T01:54:26.273Z,0.00
2023-04-09T01:55:26.268Z,0.00
2023-04-09T01:56:26.340Z,0.00
2023-04-09T01:57:26.268Z,0.00
2023-04-09T01:58:26.293Z,0.00
2023-04-09T01:59:26.247Z,0.00
2023-04-09T02:00:26.215Z,0.00
2023-04-09T02:01:26.296Z,0.00
2023-04-09T02:02:26.252Z,0.00
2023-04-09T02:03:26.267Z,0.00
2023-04-09T02:04:26.171Z,0.00
2023-04-09T02:05:26.160Z,0.00
2023-04-09T02:06:26.289Z,0.00
2023-04-09T02:07:26.417Z,0.00
2023-04-09T02:08:26.127Z,0.00
2023-04-09T02:09:26.140Z,0.00
2023-04-09T02:10:26.157Z,0.00
2023-04-09T02:11:26.107Z,0.00
2023-04-09T02:12:26.082Z,0.00
2023-04-09T02:13:26.085Z,0.00
2023-04-09T02:14:26.068Z,0.00
2023-04-09T02:15:26.056Z,0.00
2023-04-09T02:16:26.068Z,0.00
2023-04-09T02:17:26.123Z,0.00
2023-04-09T02:18:26.023Z,0.00
2023-04-09T02:19:26.054Z,0.00
2023-04-09T02:20:26.050Z,0.00
2023-04-09T02:21:26.035Z,0.00
2023-04-09T02:22:25.977Z,0.00
2023-04-09T02:23:25.967Z,0.00
2023-04-09T02:24:25.956Z,0.00
2023-04-09T02:25:25.950Z,0.00
2023-04-09T02:26:26.083Z,0.00
2023-04-09T02:27:25.914Z,0.00
2023-04-09T02:28:25.955Z,0.00
2023-04-09T02:29:25.910Z,0.00
2023-04-09T02:30:25.888Z,0.00
2023-04-09T02:31:25.961Z,0.00
2023-04-09T02:32:25.932Z,0.00
2023-04-09T02:33:25.859Z,0.00
2023-04-09T02:34:25.847Z,0.00
2023-04-09T02:35:25.835Z,0.00
2023-04-09T02:36:25.901Z,0.00
2023-04-09T02:37:25.818Z,0.00
2023-04-09T02:38:25.856Z,0.00
2023-04-09T02:39:25.789Z,0.00
2023-04-09T02:40:25.781Z,0.00
2023-04-09T02:41:25.781Z,0.00
2023-04-09T02:42:25.761Z,0.00
2023-04-09T02:43:25.752Z,0.00
2023-04-09T02:44:25.741Z,0.00
2023-04-09T02:45:25.721Z,0.00
2023-04-09T02:46:25.838Z,0.00
2023-04-09T02:47:25.735Z,0.00
2023-04-09T02:48:25.701Z,0.00
2023-04-09T02:49:25.689Z,0.00
2023-04-09T02:50:27.312Z,0.00
2023-04-09T02:51:25.667Z,0.00
2023-04-09T02:52:25.664Z,0.00
2023-04-09T02:53:25.661Z,0.00
2023-04-09T02:54:25.677Z,0.00
2023-04-09T02:55:25.742Z,0.00
2023-04-09T02:56:25.637Z,0.00
2023-04-09T02:57:25.662Z,0.00
2023-04-09T02:58:25.606Z,0.00
2023-04-09T02:59:25.685Z,0.00
2023-04-09T03:00:25.593Z,0.00
2023-04-09T03:01:25.606Z,0.00
2023-04-09T03:02:25.751Z,0.00
2023-04-09T03:03:25.768Z,0.00
2023-04-09T03:04:25.547Z,0.00
2023-04-09T03:05:25.826Z,0.00
2023-04-09T03:06:25.523Z,0.00
2023-04-09T03:07:25.549Z,0.00
2023-04-09T03:08:25.485Z,0.00
2023-04-09T03:09:25.469Z,0.00
2023-04-09T03:10:25.618Z,0.00
2023-04-09T03:11:25.493Z,0.00
2023-04-09T03:12:25.501Z,0.00
2023-04-09T03:13:25.434Z,0.00
2023-04-09T03:14:25.424Z,0.00
2023-04-09T03:15:25.430Z,0.00
2023-04-09T03:16:25.446Z,0.00
2023-04-09T03:17:25.388Z,0.00
2023-04-09T03:18:25.410Z,0.00
2023-04-09T03:19:25.370Z,0.00
2023-04-09T03:20:25.403Z,0.00
2023-04-09T03:21:25.337Z,0.00
2023-04-09T03:22:25.389Z,0.00
2023-04-09T03:23:25.360Z,0.00
2023-04-09T03:24:25.309Z,0.00
2023-04-09T03:25:25.308Z,0.00
2023-04-09T03:26:25.302Z,0.00
2023-04-09T03:27:25.285Z,0.00
2023-04-09T03:28:25.308Z,0.00
2023-04-09T03:29:25.255Z,0.00
2023-04-09T03:30:25.263Z,0.00
2023-04-09T03:31:25.280Z,0.00
2023-04-09T03:32:25.269Z,0.00
2023-04-09T03:33:25.250Z,0.00
2023-04-09T03:34:25.209Z,0.00
2023-04-09T03:35:25.278Z,0.00
2023-04-09T03:36:25.193Z,0.00
2023-04-09T03:37:25.173Z,0.00
2023-04-09T03:38:25.176Z,0.00
2023-04-09T03:39:25.157Z,0.00
2023-04-09T03:40:25.141Z,0.00
2023-04-09T03:41:25.139Z,0.00
2023-04-09T03:42:25.138Z,0.00
2023-04-09T03:43:25.114Z,0.00
2023-04-09T03:44:25.120Z,0.00
2023-04-09T03:45:25.089Z,0.00
2023-04-09T03:46:25.133Z,0.00
2023-04-09T03:47:25.085Z,0.00
2023-04-09T03:48:25.058Z,0.00
2023-04-09T03:49:25.056Z,0.00
2023-04-09T03:50:25.050Z,0.00
2023-04-09T03:51:25.028Z,0.00
2023-04-09T03:52:25.046Z,0.00
2023-04-09T03:53:25.002Z,0.00
2023-04-09T03:54:25.002Z,0.00
2023-04-09T03:55:25.030Z,0.00
2023-04-09T03:56:24.970Z,0.00
2023-04-09T03:57:24.968Z,0.00
2023-04-09T03:58:24.988Z,0.00
2023-04-09T03:59:24.947Z,0.00
2023-04-09T04:00:24.975Z,0.00
2023-04-09T04:01:24.920Z,0.00
2023-04-09T04:02:25.033Z,0.00
2023-04-09T04:03:25.018Z,0.00
2023-04-09T04:04:24.994Z,0.00
2023-04-09T04:05:24.880Z,0.00
2023-04-09T04:06:24.856Z,0.00
2023-04-09T04:07:24.880Z,0.00
2023-04-09T04:08:24.856Z,0.00
2023-04-09T04:09:24.833Z,0.00
2023-04-09T04:10:24.849Z,0.00
2023-04-09T04:11:24.831Z,0.00
2023-04-09T04:12:24.815Z,0.00
2023-04-09T04:13:24.892Z,0.00
2023-04-09T04:14:24.771Z,0.00
2023-04-09T04:15:24.781Z,0.00
2023-04-09T04:16:24.777Z,0.00
2023-04-09T04:17:24.794Z,0.00
2023-04-09T04:18:24.733Z,0.00
2023-04-09T04:19:24.718Z,0.00
2023-04-09T04:20:24.729Z,0.00
2023-04-09T04:21:24.692Z,0.00
2023-04-09T04:22:26.247Z,0.00
2023-04-09T04:23:24.673Z,0.00
2023-04-09T04:24:24.662Z,0.00
2023-04-09T04:25:24.656Z,0.00
2023-04-09T04:26:24.651Z,0.00
2023-04-09T04:27:24.629Z,0.00
2023-04-09T04:28:24.628Z,0.00
2023-04-09T04:29:24.614Z,0.00
2023-04-09T04:30:24.608Z,0.00
2023-04-09T04:31:24.640Z,0.00
2023-04-09T04:32:24.591Z,0.00
2023-04-09T04:33:24.568Z,0.00
2023-04-09T04:34:24.609Z,0.00
2023-04-09T04:35:24.683Z,0.00
2023-04-09T04:36:24.540Z,0.00
2023-04-09T04:37:24.526Z,0.00
2023-04-09T04:38:24.517Z,0.00
2023-04-09T04:39:24.500Z,0.00
2023-04-09T04:40:24.500Z,0.00
2023-04-09T04:41:24.515Z,0.00
2023-04-09T04:42:24.602Z,0.00
2023-04-09T04:43:24.481Z,0.00
2023-04-09T04:44:24.478Z,0.00
2023-04-09T04:45:24.442Z,5.62
2023-04-09T04:46:24.449Z,5.62
2023-04-09T04:47:24.438Z,5.62
2023-04-09T04:48:24.403Z,5.62
2023-04-09T04:49:24.397Z,5.62
2023-04-09T04:50:24.392Z,5.62
2023-04-09T04:51:24.379Z,11.25
2023-04-09T04:52:24.364Z,11.25
2023-04-09T04:53:24.361Z,11.25
2023-04-09T04:54:24.373Z,11.25
2023-04-09T04:55:24.358Z,11.25
2023-04-09T04:56:24.371Z,16.88
2023-04-09T04:57:24.321Z,16.88
2023-04-09T04:58:24.344Z,16.88
2023-04-09T04:59:24.357Z,22.50
2023-04-09T05:00:24.280Z,22.50
2023-04-09T05:01:24.308Z,22.50
2023-04-09T05:02:24.430Z,28.12
2023-04-09T05:03:27.003Z,28.12
2023-04-09T05:04:24.230Z,28.12
2023-04-09T05:05:24.288Z,33.75
2023-04-09T05:06:24.214Z,33.75
2023-04-09T05:07:24.233Z,33.75
2023-04-09T05:08:24.200Z,39.38
2023-04-09T05:09:24.172Z,39.38
2023-04-09T05:10:24.179Z,45.00
2023-04-09T05:11:24.174Z,45.00
2023-04-09T05:12:24.144Z,50.62
2023-04-09T05:13:24.194Z,50.62
2023-04-09T05:14:24.181Z,50.62
2023-04-09T05:15:24.159Z,50.62
2023-04-09T05:16:24.137Z,56.25
2023-04-09T05:17:24.152Z,56.25
2023-04-09T05:18:24.117Z,61.88
2023-04-09T05:19:24.087Z,61.88
2023-04-09T05:20:24.152Z,67.50
2023-04-09T05:21:24.063Z,67.50
2023-04-09T05:22:24.047Z,73.12
2023-04-09T05:23:24.030Z,73.12
2023-04-09T05:24:24.036Z,73.12
2023-04-09T05:25:24.035Z,78.75
2023-04-09T05:26:24.048Z,84.38
2023-04-09T05:27:23.984Z,84.38
2023-04-09T05:28:23.973Z,90.00
2023-04-09T05:29:23.956Z,90.00
2023-04-09T05:30:23.966Z,95.62
2023-04-09T05:31:23.993Z,95.62
2023-04-09T05:32:23.929Z,101.25
2023-04-09T05:33:23.976Z,101.25
2023-04-09T05:34:23.933Z,106.88
2023-04-09T05:35:23.928Z,106.88
2023-04-09T05:36:23.906Z,106.88
2023-04-09T05:37:23.878Z,106.88
2023-04-09T05:38:23.877Z,112.50
2023-04-09T05:39:23.847Z,112.50
2023-04-09T05:40:23.923Z,118.12
2023-04-09T05:41:23.895Z,118.12
2023-04-09T05:42:23.824Z,123.75
2023-04-09T05:43:23.810Z,129.38
2023-04-09T05:44:23.816Z,135.00
2023-04-09T05:45:23.799Z,140.62
2023-04-09T05:46:23.797Z,140.62
2023-04-09T05:47:23.861Z,140.62
2023-04-09T05:48:23.771Z,146.25
2023-04-09T05:49:23.747Z,146.25
2023-04-09T05:50:23.770Z,151.88
2023-04-09T05:51:23.740Z,157.50
2023-04-09T05:52:23.783Z,163.12
2023-04-09T05:53:23.725Z,168.75
2023-04-09T05:54:23.704Z,174.38
2023-04-09T05:55:23.711Z,180.00
2023-04-09T05:56:23.681Z,185.62
2023-04-09T05:57:23.740Z,191.25
2023-04-09T05:58:23.720Z,191.25
2023-04-09T05:59:23.768Z,196.88
2023-04-09T06:00:23.645Z,196.88
2023-04-09T06:01:23.745Z,202.50
2023-04-09T06:02:23.737Z,208.12
2023-04-09T06:03:23.809Z,213.75
2023-04-09T06:04:23.793Z,213.75
2023-04-09T06:05:23.689Z,219.38
2023-04-09T06:06:23.564Z,219.38
2023-04-09T06:07:23.659Z,225.00
2023-04-09T06:08:23.549Z,230.62
2023-04-09T06:09:23.583Z,236.25
2023-04-09T06:10:23.540Z,247.50
2023-04-09T06:11:23.515Z,253.12
2023-04-09T06:12:23.510Z,258.75
2023-04-09T06:13:23.490Z,270.00
2023-04-09T06:14:23.530Z,275.62
2023-04-09T06:15:23.500Z,281.25
2023-04-09T06:16:23.529Z,286.88
2023-04-09T06:17:23.479Z,298.12
2023-04-09T06:18:23.437Z,309.38
2023-04-09T06:19:23.456Z,315.00
2023-04-09T06:20:23.434Z,315.00
2023-04-09T06:21:23.400Z,320.62
2023-04-09T06:22:23.612Z,326.25
2023-04-09T06:23:23.403Z,337.50
2023-04-09T06:24:23.383Z,354.38
2023-04-09T06:25:23.413Z,365.62
2023-04-09T06:26:23.353Z,365.62
2023-04-09T06:27:23.336Z,371.25
2023-04-09T06:28:23.332Z,376.88
2023-04-09T06:29:24.437Z,399.38
2023-04-09T06:30:23.339Z,399.38
2023-04-09T06:31:23.323Z,399.38
2023-04-09T06:32:23.297Z,410.62
2023-04-09T06:33:23.305Z,410.62
2023-04-09T06:34:23.275Z,421.88
2023-04-09T06:35:23.284Z,433.12
2023-04-09T06:36:23.293Z,461.25
2023-04-09T06:37:23.228Z,506.25
2023-04-09T06:38:23.497Z,551.25
2023-04-09T06:39:23.222Z,495.00
2023-04-09T06:40:23.461Z,798.75
2023-04-09T06:41:23.206Z,511.88
2023-04-09T06:42:23.189Z,472.50
2023-04-09T06:43:23.164Z,545.62
2023-04-09T06:44:23.167Z,646.88
2023-04-09T06:45:23.164Z,652.50
2023-04-09T06:46:23.181Z,675.00
2023-04-09T06:47:23.130Z,866.25
2023-04-09T06:48:23.185Z,916.88
2023-04-09T06:49:23.105Z,759.38
2023-04-09T06:50:23.131Z,703.12
2023-04-09T06:51:23.119Z,866.25
2023-04-09T06:52:23.297Z,990.00
2023-04-09T06:53:23.115Z,770.62
2023-04-09T06:54:23.055Z,613.12
2023-04-09T06:55:23.047Z,596.25
2023-04-09T06:56:23.027Z,1102.50
2023-04-09T06:57:23.008Z,748.12
2023-04-09T06:58:23.017Z,770.62
2023-04-09T06:59:22.994Z,1018.12
2023-04-09T07:00:23.055Z,748.12
2023-04-09T07:01:22.985Z,1170.00
2023-04-09T07:02:23.082Z,680.62
2023-04-09T07:03:23.065Z,866.25
2023-04-09T07:04:23.036Z,855.00
2023-04-09T07:05:23.022Z,1141.88
2023-04-09T07:06:22.925Z,1237.50
2023-04-09T07:07:25.377Z,826.88
2023-04-09T07:08:22.967Z,776.25
2023-04-09T07:09:22.919Z,725.62
2023-04-09T07:10:22.899Z,742.50
2023-04-09T07:11:22.861Z,720.00
2023-04-09T07:12:22.872Z,736.88
2023-04-09T07:13:22.835Z,990.00
2023-04-09T07:14:22.848Z,894.38
2023-04-09T07:15:22.872Z,1035.00
2023-04-09T07:16:23.675Z,753.75
2023-04-09T07:17:22.915Z,753.75
2023-04-09T07:18:22.803Z,1147.50
2023-04-09T07:19:22.782Z,1051.88
2023-04-09T07:20:22.798Z,1029.38
2023-04-09T07:21:22.753Z,1113.75
2023-04-09T07:22:22.745Z,1614.38
2023-04-09T07:23:22.962Z,1755.00
2023-04-09T07:24:22.734Z,1665.00
2023-04-09T07:25:22.732Z,1614.38
2023-04-09T07:26:22.700Z,894.38
2023-04-09T07:27:22.684Z,1051.88
2023-04-09T07:28:22.678Z,956.25
2023-04-09T07:29:22.691Z,804.38
2023-04-09T07:30:22.660Z,911.25
2023-04-09T07:31:22.754Z,838.12
2023-04-09T07:32:22.681Z,961.88
2023-04-09T07:33:22.614Z,1620.00
2023-04-09T07:34:22.632Z,1670.62
2023-04-09T07:35:22.668Z,1726.88
2023-04-09T07:36:22.602Z,1816.88
2023-04-09T07:37:22.580Z,1816.88
2023-04-09T07:38:22.573Z,1704.38
2023-04-09T07:39:22.550Z,1659.38
2023-04-09T07:40:22.581Z,1665.00
2023-04-09T07:41:22.542Z,1653.75
2023-04-09T07:42:22.573Z,1710.00
2023-04-09T07:43:22.654Z,1749.38
2023-04-09T07:44:22.533Z,1715.62
2023-04-09T07:45:22.491Z,1693.12
2023-04-09T07:46:22.516Z,1704.38
2023-04-09T07:47:22.570Z,1710.00
2023-04-09T07:48:22.460Z,1698.75
2023-04-09T07:49:22.440Z,1710.00
2023-04-09T07:50:22.637Z,1732.50
2023-04-09T07:51:22.439Z,1749.38
2023-04-09T07:52:22.431Z,1811.25
2023-04-09T07:53:22.400Z,1867.50
2023-04-09T07:54:22.487Z,1912.50
2023-04-09T07:55:22.438Z,1974.38
2023-04-09T07:56:22.377Z,2109.38
2023-04-09T07:57:22.355Z,2064.38
2023-04-09T07:58:22.426Z,1951.88
2023-04-09T07:59:22.379Z,1946.25
2023-04-09T08:00:22.366Z,1980.00
2023-04-09T08:01:22.366Z,2103.75
2023-04-09T08:02:22.418Z,2176.88
2023-04-09T08:03:22.535Z,2199.38
2023-04-09T08:04:22.422Z,2092.50
2023-04-09T08:05:22.329Z,2098.12
2023-04-09T08:06:22.312Z,2221.88
2023-04-09T08:07:22.414Z,2233.12
2023-04-09T08:08:22.242Z,2103.75
2023-04-09T08:09:22.240Z,2041.88
2023-04-09T08:10:22.241Z,2036.25
2023-04-09T08:11:22.226Z,2086.88
2023-04-09T08:12:22.271Z,2092.50
2023-04-09T08:13:22.195Z,2081.25
2023-04-09T08:14:22.201Z,2126.25
2023-04-09T08:15:22.201Z,2233.12
2023-04-09T08:16:22.191Z,2480.62
2023-04-09T08:17:22.373Z,2576.25
2023-04-09T08:18:22.143Z,2396.25
2023-04-09T08:19:22.126Z,2216.25
2023-04-09T08:20:22.128Z,2171.25
2023-04-09T08:21:22.129Z,2272.50
2023-04-09T08:22:22.107Z,2435.62
2023-04-09T08:23:22.109Z,2508.75
2023-04-09T08:24:22.088Z,2323.12
2023-04-09T08:25:22.084Z,2278.12
2023-04-09T08:26:22.063Z,2283.75
2023-04-09T08:27:22.110Z,2390.62
2023-04-09T08:28:22.077Z,2503.12
2023-04-09T08:29:22.024Z,2565.00
2023-04-09T08:30:22.027Z,2643.75
2023-04-09T08:31:22.033Z,2497.50
2023-04-09T08:32:22.035Z,2480.62
2023-04-09T08:33:21.993Z,2491.88
2023-04-09T08:34:21.984Z,2430.00
2023-04-09T08:35:21.952Z,2458.12
2023-04-09T08:36:22.069Z,2458.12
2023-04-09T08:37:21.961Z,2441.25
2023-04-09T08:38:22.050Z,2446.88
2023-04-09T08:39:21.920Z,2334.38
2023-04-09T08:40:21.953Z,2435.62
2023-04-09T08:41:21.908Z,2508.75
2023-04-09T08:42:21.890Z,2570.62
2023-04-09T08:43:22.196Z,2598.75
2023-04-09T08:44:21.940Z,2525.62
2023-04-09T08:45:21.874Z,2570.62
2023-04-09T08:46:21.892Z,2610.00
2023-04-09T08:47:21.888Z,2688.75
2023-04-09T08:48:21.976Z,2919.38
2023-04-09T08:49:21.799Z,2700.00
2023-04-09T08:50:21.860Z,2463.75
2023-04-09T08:51:21.827Z,2435.62
2023-04-09T08:52:21.809Z,2385.00
2023-04-09T08:53:21.799Z,2390.62
2023-04-09T08:54:21.756Z,2491.88
2023-04-09T08:55:21.760Z,2666.25
2023-04-09T08:56:21.733Z,2598.75
2023-04-09T08:57:21.714Z,2576.25
2023-04-09T08:58:21.721Z,2677.50
2023-04-09T08:59:21.713Z,2767.50
2023-04-09T09:00:21.751Z,2671.88
2023-04-09T09:01:21.739Z,2801.25
2023-04-09T09:02:21.782Z,2992.50
2023-04-09T09:03:21.810Z,2902.50
2023-04-09T09:04:21.792Z,2936.25
2023-04-09T09:05:21.654Z,2688.75
2023-04-09T09:06:21.678Z,2604.38
2023-04-09T09:07:21.634Z,2581.88
2023-04-09T09:08:21.617Z,2587.50
2023-04-09T09:09:21.650Z,2694.38
2023-04-09T09:10:21.616Z,2643.75
2023-04-09T09:11:21.571Z,2857.50
2023-04-09T09:12:21.554Z,3076.88
2023-04-09T09:13:21.539Z,3003.75
2023-04-09T09:14:21.566Z,2941.88
2023-04-09T09:15:21.553Z,2908.12
2023-04-09T09:16:21.583Z,3245.62
2023-04-09T09:17:21.563Z,3380.62
2023-04-09T09:18:21.520Z,3240.00
2023-04-09T09:19:21.498Z,3290.62
2023-04-09T09:20:21.528Z,3442.50
2023-04-09T09:21:21.602Z,3481.88
2023-04-09T09:22:21.502Z,888.75
2023-04-09T09:23:21.445Z,3791.25
2023-04-09T09:24:21.426Z,3751.88
2023-04-09T09:25:21.445Z,3763.12
2023-04-09T09:26:21.422Z,1136.25
2023-04-09T09:27:21.397Z,3819.38
2023-04-09T09:28:21.391Z,4021.88
2023-04-09T09:29:21.453Z,3774.38
2023-04-09T09:30:21.383Z,3515.62
2023-04-09T09:31:21.412Z,3791.25
2023-04-09T09:32:21.448Z,916.88
2023-04-09T09:33:21.338Z,3920.62
2023-04-09T09:34:21.327Z,4156.88
2023-04-09T09:35:21.329Z,4280.62
2023-04-09T09:36:21.358Z,4387.50
2023-04-09T09:37:21.316Z,4207.50
2023-04-09T09:38:21.288Z,4010.62
2023-04-09T09:39:21.271Z,4005.00
2023-04-09T09:40:21.326Z,4066.88
2023-04-09T09:41:21.306Z,1530.00
2023-04-09T09:42:21.243Z,4398.75
2023-04-09T09:43:21.226Z,3903.75
2023-04-09T09:44:21.257Z,4106.25
2023-04-09T09:45:21.252Z,4201.88
2023-04-09T09:46:21.262Z,4241.25
2023-04-09T09:47:21.186Z,4066.88
2023-04-09T09:48:21.191Z,3240.00
2023-04-09T09:49:21.236Z,1417.50
2023-04-09T09:50:21.182Z,4275.00
2023-04-09T09:51:21.148Z,1282.50
2023-04-09T09:52:21.145Z,2261.25
2023-04-09T09:53:21.135Z,4421.25
2023-04-09T09:54:21.136Z,4342.50
2023-04-09T09:55:21.184Z,4325.62
2023-04-09T09:56:21.191Z,1366.88
2023-04-09T09:57:21.104Z,922.50
2023-04-09T09:58:21.094Z,945.00
2023-04-09T09:59:21.092Z,2975.62
2023-04-09T10:00:22.712Z,1248.75
2023-04-09T10:01:21.100Z,4336.88
2023-04-09T10:02:21.198Z,4365.00
2023-04-09T10:03:21.066Z,4331.25
2023-04-09T10:04:21.075Z,4590.00
2023-04-09T10:05:21.025Z,1248.75
2023-04-09T10:06:20.992Z,1231.88
2023-04-09T10:07:21.012Z,1215.00
2023-04-09T10:08:20.970Z,3127.50
2023-04-09T10:09:21.027Z,1254.38
2023-04-09T10:10:20.974Z,4263.75
2023-04-09T10:11:20.933Z,3600.00
2023-04-09T10:12:20.950Z,1980.00
2023-04-09T10:13:20.923Z,1788.75
2023-04-09T10:14:20.912Z,3532.50
2023-04-09T10:15:20.911Z,4511.25
2023-04-09T10:16:20.943Z,4348.12
2023-04-09T10:17:20.916Z,3588.75
2023-04-09T10:18:20.942Z,4533.75
2023-04-09T10:19:20.866Z,1181.25
2023-04-09T10:20:20.891Z,1372.50
2023-04-09T10:21:20.892Z,4837.50
2023-04-09T10:22:20.846Z,4843.12
2023-04-09T10:23:20.808Z,4353.75
2023-04-09T10:24:20.848Z,4173.75
2023-04-09T10:25:20.796Z,4410.00
2023-04-09T10:26:20.806Z,4286.25
2023-04-09T10:27:20.812Z,4381.88
2023-04-09T10:28:20.775Z,4393.12
2023-04-09T10:29:20.769Z,4516.88
2023-04-09T10:30:20.797Z,4848.75
2023-04-09T10:31:20.764Z,4888.12
2023-04-09T10:32:20.726Z,4730.62
2023-04-09T10:33:20.700Z,4578.75
2023-04-09T10:34:20.710Z,4145.62
2023-04-09T10:35:20.728Z,4449.38
2023-04-09T10:36:20.713Z,4635.00
2023-04-09T10:37:20.667Z,2598.75
2023-04-09T10:38:20.730Z,3155.62
2023-04-09T10:39:20.681Z,4618.12
2023-04-09T10:40:20.654Z,1068.75
2023-04-09T10:41:20.618Z,1063.12
2023-04-09T10:42:20.648Z,1243.12
2023-04-09T10:43:20.685Z,4280.62
2023-04-09T10:44:20.638Z,3583.12
2023-04-09T10:45:22.371Z,1783.12
2023-04-09T10:46:20.614Z,1192.50
2023-04-09T10:47:20.556Z,1096.88
2023-04-09T10:48:20.587Z,1029.38
2023-04-09T10:49:20.549Z,973.12
2023-04-09T10:50:20.532Z,916.88
2023-04-09T10:51:20.516Z,855.00
2023-04-09T10:52:20.519Z,821.25
2023-04-09T10:53:20.503Z,810.00
2023-04-09T10:54:20.530Z,815.62
2023-04-09T10:55:20.474Z,838.12
2023-04-09T10:56:20.468Z,855.00
2023-04-09T10:57:20.488Z,888.75
2023-04-09T10:58:20.452Z,939.38
2023-04-09T10:59:20.441Z,990.00
2023-04-09T11:00:20.452Z,1074.38
2023-04-09T11:01:20.434Z,1867.50
2023-04-09T11:02:20.562Z,1929.38
2023-04-09T11:03:20.505Z,1310.62
2023-04-09T11:04:20.423Z,1226.25
2023-04-09T11:05:20.385Z,1192.50
2023-04-09T11:06:20.372Z,1153.12
2023-04-09T11:07:20.365Z,1136.25
2023-04-09T11:08:20.339Z,1125.00
2023-04-09T11:09:20.340Z,1125.00
2023-04-09T11:10:20.388Z,1108.12
2023-04-09T11:11:20.306Z,1057.50
2023-04-09T11:12:20.286Z,978.75
2023-04-09T11:13:20.303Z,990.00
2023-04-09T11:14:20.292Z,1012.50
2023-04-09T11:15:20.272Z,1057.50
2023-04-09T11:16:22.899Z,1074.38
2023-04-09T11:17:20.284Z,1063.12
2023-04-09T11:18:20.246Z,1063.12
2023-04-09T11:19:20.237Z,1091.25
2023-04-09T11:20:20.204Z,1147.50
2023-04-09T11:21:20.189Z,1209.38
2023-04-09T11:22:20.180Z,1260.00
2023-04-09T11:23:20.190Z,1406.25
2023-04-09T11:24:20.180Z,1845.00
2023-04-09T11:25:20.200Z,1552.50
2023-04-09T11:26:20.165Z,1608.75
2023-04-09T11:27:20.128Z,1445.62
2023-04-09T11:28:20.132Z,1485.00
2023-04-09T11:29:20.372Z,1715.62
2023-04-09T11:30:20.093Z,4010.62
2023-04-09T11:31:20.122Z,4545.00
2023-04-09T11:32:20.095Z,5568.75
2023-04-09T11:33:20.582Z,5124.38
2023-04-09T11:34:20.075Z,5231.25
2023-04-09T11:35:20.052Z,3178.12
2023-04-09T11:36:20.065Z,1321.88
2023-04-09T11:37:20.027Z,1248.75
2023-04-09T11:38:20.040Z,1254.38
2023-04-09T11:39:20.011Z,1321.88
2023-04-09T11:40:20.030Z,1625.62
2023-04-09T11:41:20.001Z,2688.75
2023-04-09T11:42:19.960Z,4680.00
2023-04-09T11:43:19.956Z,1974.38
2023-04-09T11:44:19.950Z,1884.38
2023-04-09T11:45:19.929Z,2126.25
2023-04-09T11:46:19.972Z,2278.12
2023-04-09T11:47:19.938Z,2401.88
2023-04-09T11:48:19.953Z,5124.38
2023-04-09T11:49:19.915Z,3920.62
2023-04-09T11:50:19.886Z,3830.62
2023-04-09T11:51:19.873Z,2823.75
2023-04-09T11:52:19.858Z,4815.00
2023-04-09T11:53:19.937Z,1974.38
2023-04-09T11:54:19.890Z,1839.38
2023-04-09T11:55:19.825Z,3166.88
2023-04-09T11:56:19.813Z,2137.50
2023-04-09T11:57:19.808Z,1890.00
2023-04-09T11:58:19.831Z,1777.50
2023-04-09T11:59:19.810Z,1755.00
2023-04-09T12:00:19.801Z,1884.38
2023-04-09T12:01:19.792Z,1681.88
2023-04-09T12:02:19.903Z,1721.25
2023-04-09T12:03:20.030Z,2739.38
2023-04-09T12:04:19.913Z,2092.50
2023-04-09T12:05:19.753Z,1591.88
2023-04-09T12:06:19.726Z,1569.38
2023-04-09T12:07:19.711Z,2925.00
2023-04-09T12:08:19.700Z,2188.12
2023-04-09T12:09:19.813Z,1434.38
2023-04-09T12:10:19.719Z,1333.12
2023-04-09T12:11:19.660Z,1310.62
2023-04-09T12:12:19.661Z,1282.50
2023-04-09T12:13:19.703Z,1231.88
2023-04-09T12:14:19.628Z,1220.62
2023-04-09T12:15:19.653Z,1276.88
2023-04-09T12:16:19.669Z,1631.25
2023-04-09T12:17:19.616Z,4590.00
2023-04-09T12:18:19.617Z,3228.75
2023-04-09T12:19:19.623Z,4668.75
2023-04-09T12:20:19.573Z,3510.00
2023-04-09T12:21:19.582Z,1929.38
2023-04-09T12:22:19.542Z,1501.88
2023-04-09T12:23:19.776Z,1861.88
2023-04-09T12:24:19.527Z,2188.12
2023-04-09T12:25:19.524Z,1850.62
2023-04-09T12:26:19.555Z,3048.75
2023-04-09T12:27:19.528Z,2435.62
2023-04-09T12:28:20.056Z,4308.75
2023-04-09T12:29:19.496Z,1985.62
2023-04-09T12:30:19.497Z,4280.62
2023-04-09T12:31:19.530Z,1513.12
2023-04-09T12:32:19.524Z,1316.25
2023-04-09T12:33:19.470Z,1243.12
2023-04-09T12:34:19.414Z,1237.50
2023-04-09T12:35:19.429Z,1333.12
2023-04-09T12:36:19.402Z,1434.38
2023-04-09T12:37:19.500Z,1299.38
2023-04-09T12:38:19.423Z,1136.25